createdAt,value
2018-06-11T00:00:12.043Z,19.53
2018-06-11T00:02:42.929Z,19.61
2018-06-11T00:05:13.848Z,19.58
2018-06-11T00:07:45.062Z,19.53
2018-06-11T00:10:16.254Z,19.55
2018-06-11T00:12:47.045Z,19.58
2018-06-11T00:15:17.561Z,19.60
2018-06-11T00:17:48.295Z,19.46
2018-06-11T00:20:19.037Z,19.45
2018-06-11T00:22:49.813Z,19.46
2018-06-11T00:25:21.000Z,19.46
2018-06-11T00:27:51.334Z,19.48
2018-06-11T00:30:22.094Z,19.46
2018-06-11T00:32:53.503Z,19.39
2018-06-11T00:35:24.602Z,19.36
2018-06-11T00:37:55.353Z,19.37
2018-06-11T00:40:26.120Z,19.34
2018-06-11T00:42:56.582Z,19.07
2018-06-11T00:45:27.820Z,18.62
2018-06-11T00:47:58.942Z,18.40
2018-06-11T00:50:29.738Z,18.27
2018-06-11T00:53:00.498Z,18.38
2018-06-11T00:55:42.643Z,18.53
2018-06-11T00:58:13.663Z,18.61
2018-06-11T01:00:44.257Z,18.68
2018-06-11T01:03:15.064Z,18.75
2018-06-11T01:05:46.069Z,18.86
2018-06-11T01:08:17.122Z,18.76
2018-06-11T01:10:47.141Z,18.48
2018-06-11T01:13:18.039Z,18.41
2018-06-11T01:15:48.287Z,18.16
2018-06-11T01:18:19.326Z,18.20
2018-06-11T01:20:50.474Z,18.06
2018-06-11T01:23:21.722Z,18.16
2018-06-11T01:26:03.949Z,18.21
2018-06-11T01:28:46.421Z,18.01
2018-06-11T01:31:17.331Z,17.94
2018-06-11T01:33:48.142Z,18.07
2018-06-11T01:36:18.854Z,18.12
2018-06-11T01:38:49.626Z,18.06
2018-06-11T01:41:20.538Z,17.97
2018-06-11T01:43:51.503Z,17.93
2018-06-11T01:46:22.289Z,18.07
2018-06-11T01:48:52.538Z,18.03
2018-06-11T01:51:23.053Z,17.67
2018-06-11T01:53:53.829Z,17.64
2018-06-11T01:56:24.936Z,17.53
2018-06-11T01:58:55.702Z,17.71
2018-06-11T02:01:26.619Z,17.85
2018-06-11T02:03:56.713Z,17.91
2018-06-11T02:06:27.767Z,18.05
2018-06-11T02:08:58.343Z,18.16
2018-06-11T02:11:29.152Z,18.22
2018-06-11T02:14:00.848Z,18.28
2018-06-11T02:16:31.520Z,18.16
2018-06-11T02:19:01.947Z,18.19
2018-06-11T02:21:32.866Z,18.27
2018-06-11T02:24:04.078Z,18.26
2018-06-11T02:26:34.762Z,18.06
2018-06-11T02:29:05.231Z,18.28
2018-06-11T02:31:34.953Z,18.28
2018-06-11T02:34:05.133Z,18.34
2018-06-11T02:36:35.908Z,18.16
2018-06-11T02:39:08.966Z,17.98
2018-06-11T02:41:39.676Z,17.92
2018-06-11T02:44:10.787Z,17.94
2018-06-11T02:46:41.678Z,17.91
2018-06-11T02:49:12.294Z,17.78
2018-06-11T02:51:43.070Z,17.83
2018-06-11T02:54:13.974Z,17.72
2018-06-11T02:56:44.576Z,17.70
2018-06-11T02:59:15.354Z,17.50
2018-06-11T03:01:46.275Z,17.68
2018-06-11T03:04:17.159Z,17.81
2018-06-11T03:06:48.463Z,17.73
2018-06-11T03:09:19.077Z,17.75
2018-06-11T03:11:49.952Z,17.92
2018-06-11T03:14:21.475Z,17.82
2018-06-11T03:16:52.585Z,17.92
2018-06-11T03:19:23.327Z,18.09
2018-06-11T03:21:54.715Z,18.24
2018-06-11T03:24:25.105Z,18.36
2018-06-11T03:26:55.940Z,18.43
2018-06-11T03:29:26.650Z,18.25
2018-06-11T03:31:57.774Z,18.31
2018-06-11T03:34:28.491Z,18.21
2018-06-11T03:36:59.186Z,18.44
2018-06-11T03:39:29.811Z,18.50
2018-06-11T03:42:01.021Z,18.38
2018-06-11T03:44:31.696Z,18.34
2018-06-11T03:47:02.346Z,18.34
2018-06-11T03:49:33.112Z,18.54
2018-06-11T03:52:04.450Z,18.65
2018-06-11T03:54:36.007Z,18.80
2018-06-11T03:57:06.893Z,18.88
2018-06-11T03:59:37.659Z,19.09
2018-06-11T04:02:07.918Z,19.12
2018-06-11T04:04:38.773Z,19.27
2018-06-11T04:07:09.718Z,19.27
2018-06-11T04:09:40.508Z,19.46
2018-06-11T04:12:11.997Z,19.40
2018-06-11T04:14:42.772Z,19.52
2018-06-11T04:17:13.612Z,19.51
2018-06-11T04:19:44.925Z,19.39
2018-06-11T04:22:16.439Z,19.46
2018-06-11T04:24:47.194Z,19.62
2018-06-11T04:27:17.973Z,19.69
2018-06-11T04:29:48.686Z,19.69
2018-06-11T04:32:20.685Z,19.76
2018-06-11T04:34:51.484Z,19.95
2018-06-11T04:37:22.247Z,20.11
2018-06-11T04:39:53.184Z,20.24
2018-06-11T04:42:23.802Z,20.33
2018-06-11T04:44:54.165Z,20.52
2018-06-11T04:47:25.013Z,20.63
2018-06-11T04:49:56.082Z,20.78
2018-06-11T04:52:27.027Z,20.76
2018-06-11T04:54:57.326Z,20.95
2018-06-11T04:57:27.980Z,21.21
2018-06-11T04:59:59.452Z,21.38
2018-06-11T05:02:30.375Z,21.51
2018-06-11T05:05:01.214Z,21.45
2018-06-11T05:07:31.937Z,21.62
2018-06-11T05:10:02.647Z,21.65
2018-06-11T05:12:33.739Z,21.64
2018-06-11T05:15:04.359Z,21.77
2018-06-11T05:17:35.780Z,21.89
2018-06-11T05:20:07.369Z,22.00
2018-06-11T05:22:38.152Z,22.08
2018-06-11T05:25:08.963Z,22.28
2018-06-11T05:27:39.626Z,22.38
2018-06-11T05:30:10.585Z,22.65
2018-06-11T05:32:41.280Z,22.92
2018-06-11T05:35:12.117Z,23.09
2018-06-11T05:37:42.369Z,23.22
2018-06-11T05:40:13.026Z,23.35
2018-06-11T05:42:43.962Z,23.61
2018-06-11T05:45:14.729Z,23.49
2018-06-11T05:47:45.573Z,23.69
2018-06-11T05:50:16.401Z,23.90
2018-06-11T05:52:47.157Z,23.96
2018-06-11T05:55:17.976Z,23.96
2018-06-11T05:57:50.050Z,24.06
2018-06-11T06:00:20.497Z,24.15
2018-06-11T06:02:51.152Z,24.18
2018-06-11T06:05:21.793Z,24.50
2018-06-11T06:07:52.473Z,24.61
2018-06-11T06:10:24.439Z,24.89
2018-06-11T06:12:54.800Z,24.96
2018-06-11T06:15:25.203Z,25.11
2018-06-11T06:17:56.148Z,25.12
2018-06-11T06:20:26.979Z,25.43
2018-06-11T06:22:58.139Z,25.77
2018-06-11T06:25:28.225Z,25.80
2018-06-11T06:27:59.534Z,25.91
2018-06-11T06:30:30.780Z,25.91
2018-06-11T06:33:01.693Z,26.33
2018-06-11T06:35:33.415Z,26.75
2018-06-11T06:38:04.245Z,26.88
2018-06-11T06:40:35.206Z,26.97
2018-06-11T06:43:05.572Z,27.04
2018-06-11T06:45:36.412Z,27.14
2018-06-11T06:48:07.589Z,27.08
2018-06-11T06:50:40.990Z,27.14
2018-06-11T06:53:11.833Z,27.46
2018-06-11T06:55:42.736Z,27.47
2018-06-11T06:58:13.594Z,27.59
2018-06-11T07:00:44.491Z,27.77
2018-06-11T07:03:15.483Z,28.29
2018-06-11T07:05:46.067Z,28.35
2018-06-11T07:08:16.896Z,28.27
2018-06-11T07:10:47.888Z,28.38
2018-06-11T07:13:19.240Z,28.46
2018-06-11T07:15:50.741Z,28.58
2018-06-11T07:18:21.214Z,28.74
2018-06-11T07:20:51.869Z,29.13
2018-06-11T07:23:22.591Z,28.87
2018-06-11T07:25:53.544Z,28.58
2018-06-11T07:28:25.638Z,28.81
2018-06-11T07:30:56.533Z,28.55
2018-06-11T07:33:27.170Z,28.58
2018-06-11T07:35:58.345Z,29.47
2018-06-11T07:38:29.264Z,29.91
2018-06-11T07:41:00.463Z,30.16
2018-06-11T07:43:31.114Z,30.19
2018-06-11T07:46:01.957Z,30.56
2018-06-11T07:48:32.297Z,30.64
2018-06-11T07:51:03.166Z,30.90
2018-06-11T07:53:34.262Z,30.67
2018-06-11T07:56:05.707Z,30.60
2018-06-11T07:58:35.774Z,30.44
2018-06-11T08:01:06.612Z,30.80
2018-06-11T08:03:37.716Z,30.64
2018-06-11T08:06:08.393Z,30.60
2018-06-11T08:08:39.329Z,30.91
2018-06-11T08:11:10.209Z,31.07
2018-06-11T08:13:41.162Z,31.18
2018-06-11T08:16:11.446Z,31.15
2018-06-11T08:18:42.445Z,31.17
2018-06-11T08:21:13.358Z,31.24
2018-06-11T08:23:43.301Z,31.63
2018-06-11T08:26:14.304Z,31.77
2018-06-11T08:28:44.556Z,31.92
2018-06-11T08:31:15.105Z,31.89
2018-06-11T08:33:45.740Z,31.78
2018-06-11T08:36:16.045Z,31.87
2018-06-11T08:38:46.753Z,32.00
2018-06-11T08:41:17.683Z,31.92
2018-06-11T08:43:48.498Z,31.94
2018-06-11T08:46:33.955Z,31.98
2018-06-11T08:49:04.641Z,32.33
2018-06-11T08:51:35.401Z,32.52
2018-06-11T08:54:06.451Z,32.10
2018-06-11T08:56:38.053Z,32.03
2018-06-11T08:59:08.524Z,31.81
2018-06-11T09:01:38.717Z,31.71
2018-06-11T09:04:09.421Z,31.88
2018-06-11T09:06:40.155Z,32.55
2018-06-11T09:09:10.862Z,33.14
2018-06-11T09:11:42.542Z,33.14
2018-06-11T09:14:13.511Z,33.31
2018-06-11T09:16:44.348Z,33.95
2018-06-11T09:19:14.380Z,34.27
2018-06-11T09:21:45.385Z,34.05
2018-06-11T09:24:16.130Z,33.97
2018-06-11T09:26:47.334Z,34.07
2018-06-11T09:29:18.276Z,34.18
2018-06-11T09:31:48.896Z,34.15
2018-06-11T09:34:21.342Z,34.71
2018-06-11T09:36:52.449Z,34.05
2018-06-11T09:39:23.478Z,34.04
2018-06-11T09:41:54.343Z,33.79
2018-06-11T09:44:25.808Z,33.37
2018-06-11T09:46:57.093Z,33.24
2018-06-11T09:49:28.687Z,33.49
2018-06-11T09:51:59.446Z,33.94
2018-06-11T09:54:30.186Z,33.35
2018-06-11T09:57:00.241Z,33.45
2018-06-11T09:59:31.151Z,33.19
2018-06-11T10:02:01.728Z,33.11
2018-06-11T10:04:32.906Z,32.94
2018-06-11T10:07:04.137Z,33.15
2018-06-11T10:09:35.588Z,34.00
2018-06-11T10:12:07.604Z,34.44
2018-06-11T10:14:39.317Z,34.23
2018-06-11T10:17:11.702Z,33.92
2018-06-11T10:19:43.234Z,34.07
2018-06-11T10:22:14.978Z,33.99
2018-06-11T10:24:46.195Z,34.14
2018-06-11T10:27:17.021Z,34.47
2018-06-11T10:29:47.872Z,34.97
2018-06-11T10:32:18.762Z,35.01
2018-06-11T10:34:49.541Z,34.55
2018-06-11T10:37:20.542Z,34.71
2018-06-11T10:39:51.124Z,35.08
2018-06-11T10:42:22.622Z,34.85
2018-06-11T10:44:53.458Z,35.31
2018-06-11T10:47:24.361Z,35.79
2018-06-11T10:49:55.406Z,35.41
2018-06-11T10:52:26.999Z,35.79
2018-06-11T10:54:57.773Z,35.62
2018-06-11T10:57:29.052Z,35.09
2018-06-11T11:00:00.260Z,35.22
2018-06-11T11:02:30.949Z,35.73
2018-06-11T11:05:00.975Z,36.05
2018-06-11T11:07:31.785Z,36.06
2018-06-11T11:10:02.861Z,36.06
2018-06-11T11:12:33.964Z,35.61
2018-06-11T11:15:04.976Z,35.72
2018-06-11T11:17:36.346Z,35.93
2018-06-11T11:20:07.351Z,36.28
2018-06-11T11:22:38.112Z,36.31
2018-06-11T11:25:08.953Z,36.42
2018-06-11T11:27:40.061Z,36.50
2018-06-11T11:30:11.079Z,36.51
2018-06-11T11:32:41.987Z,36.32
2018-06-11T11:35:14.543Z,36.45
2018-06-11T11:37:45.169Z,36.39
2018-06-11T11:40:16.718Z,36.21
2018-06-11T11:42:48.454Z,36.59
2018-06-11T11:45:20.143Z,36.58
2018-06-11T11:47:51.206Z,35.97
2018-06-11T11:50:22.531Z,35.98
2018-06-11T11:52:53.597Z,35.89
2018-06-11T11:55:24.554Z,35.69
2018-06-11T11:57:55.873Z,35.91
2018-06-11T12:00:28.049Z,36.04
2018-06-11T12:02:59.088Z,36.46
2018-06-11T12:05:29.830Z,35.90
2018-06-11T12:08:00.662Z,36.35
2018-06-11T12:10:32.430Z,35.93
2018-06-11T12:13:03.761Z,35.71
2018-06-11T12:15:34.577Z,35.99
2018-06-11T12:18:05.897Z,36.49
2018-06-11T12:20:37.066Z,36.90
2018-06-11T12:23:08.114Z,36.57
2018-06-11T12:25:39.279Z,36.70
2018-06-11T12:28:10.269Z,37.19
2018-06-11T12:30:40.608Z,37.07
2018-06-11T12:33:11.411Z,37.39
2018-06-11T12:35:42.160Z,37.90
2018-06-11T12:38:13.847Z,38.23
2018-06-11T12:40:44.822Z,37.76
2018-06-11T12:43:15.762Z,37.09
2018-06-11T12:45:46.275Z,36.58
2018-06-11T12:48:17.056Z,36.30
2018-06-11T12:50:47.736Z,36.38
2018-06-11T12:53:19.049Z,36.04
2018-06-11T12:55:50.332Z,36.50
2018-06-11T12:58:21.939Z,36.63
2018-06-11T13:00:53.102Z,36.88
2018-06-11T13:03:24.781Z,36.88
2018-06-11T13:05:55.788Z,37.30
2018-06-11T13:08:27.333Z,37.25
2018-06-11T13:10:58.542Z,37.07
2018-06-11T13:13:29.296Z,36.59
2018-06-11T13:16:00.353Z,36.73
2018-06-11T13:18:32.145Z,37.18
2018-06-11T13:21:03.665Z,37.28
2018-06-11T13:23:35.252Z,37.52
2018-06-11T13:26:06.879Z,37.66
2018-06-11T13:28:38.322Z,37.60
2018-06-11T13:31:09.449Z,36.74
2018-06-11T13:33:40.923Z,36.84
2018-06-11T13:36:13.194Z,37.15
2018-06-11T13:38:44.331Z,37.34
2018-06-11T13:41:15.978Z,37.25
2018-06-11T13:43:47.098Z,37.41
2018-06-11T13:46:17.967Z,37.69
2018-06-11T13:48:48.435Z,37.81
2018-06-11T13:51:19.045Z,37.49
2018-06-11T13:53:50.762Z,37.33
2018-06-11T13:56:22.070Z,37.13
2018-06-11T13:58:54.341Z,37.20
2018-06-11T14:01:26.555Z,37.12
2018-06-11T14:03:57.217Z,37.65
2018-06-11T14:06:28.039Z,37.67
2018-06-11T14:08:58.961Z,37.50
2018-06-11T14:11:29.665Z,37.18
2018-06-11T14:14:00.643Z,37.33
2018-06-11T14:16:31.302Z,36.84
2018-06-11T14:19:02.537Z,37.47
2018-06-11T14:21:33.728Z,37.84
2018-06-11T14:24:04.566Z,37.95
2018-06-11T14:26:35.570Z,38.07
2018-06-11T14:29:06.672Z,38.14
2018-06-11T14:31:38.535Z,38.02
2018-06-11T14:34:09.220Z,38.04
2018-06-11T14:36:40.830Z,38.05
2018-06-11T14:39:12.447Z,38.52
2018-06-11T14:41:43.949Z,38.47
2018-06-11T14:44:15.381Z,38.50
2018-06-11T14:46:46.479Z,38.84
2018-06-11T14:49:17.834Z,38.29
2018-06-11T14:51:49.050Z,38.13
2018-06-11T14:54:20.452Z,37.86
2018-06-11T14:56:51.909Z,37.69
2018-06-11T14:59:23.361Z,38.01
2018-06-11T15:01:54.758Z,38.29
2018-06-11T15:04:26.605Z,38.35
2018-06-11T15:06:58.347Z,38.54
2018-06-11T15:09:29.964Z,37.61
2018-06-11T15:12:01.115Z,37.26
2018-06-11T15:14:31.952Z,36.91
2018-06-11T15:17:04.301Z,36.39
2018-06-11T15:19:35.937Z,36.47
2018-06-11T15:22:07.189Z,36.68
2018-06-11T15:24:38.033Z,36.93
2018-06-11T15:27:09.224Z,36.92
2018-06-11T15:29:41.275Z,36.84
2018-06-11T15:32:12.057Z,35.93
2018-06-11T15:34:44.207Z,35.67
2018-06-11T15:37:14.971Z,35.58
2018-06-11T15:39:45.568Z,35.17
2018-06-11T15:42:15.779Z,34.92
2018-06-11T15:44:46.940Z,34.78
2018-06-11T15:47:17.893Z,34.57
2018-06-11T15:49:47.883Z,34.49
2018-06-11T15:52:18.940Z,34.29
2018-06-11T15:54:49.740Z,34.14
2018-06-11T15:57:21.087Z,34.01
2018-06-11T15:59:52.472Z,33.75
2018-06-11T16:02:23.258Z,33.32
2018-06-11T16:04:54.480Z,32.96
2018-06-11T16:07:25.949Z,32.62
2018-06-11T16:09:57.563Z,32.37
2018-06-11T16:12:28.919Z,32.12
2018-06-11T16:15:00.494Z,31.87
2018-06-11T16:17:31.798Z,31.55
2018-06-11T16:20:03.551Z,31.35
2018-06-11T16:22:35.121Z,31.32
2018-06-11T16:25:06.764Z,31.06
2018-06-11T16:27:38.001Z,30.84
2018-06-11T16:30:09.469Z,30.63
2018-06-11T16:32:40.969Z,30.43
2018-06-11T16:35:12.210Z,30.35
2018-06-11T16:37:43.906Z,30.37
2018-06-11T16:40:15.873Z,30.28
2018-06-11T16:42:47.309Z,30.38
2018-06-11T16:45:17.747Z,30.44
2018-06-11T16:47:49.004Z,30.50
2018-06-11T16:50:19.919Z,30.50
2018-06-11T16:52:51.813Z,30.48
2018-06-11T16:55:23.079Z,30.58
2018-06-11T16:57:53.931Z,30.60
2018-06-11T17:01:55.084Z,30.72
2018-06-11T17:04:26.879Z,30.47
2018-06-11T17:06:57.968Z,30.47
2018-06-11T17:09:28.838Z,30.44
2018-06-11T17:11:59.609Z,30.43
2018-06-11T17:14:30.498Z,30.42
2018-06-11T17:17:01.486Z,30.33
2018-06-11T17:19:32.373Z,30.10
2018-06-11T17:22:03.090Z,30.23
2018-06-11T17:24:33.959Z,30.25
2018-06-11T17:27:04.956Z,30.21
2018-06-11T17:29:35.659Z,29.94
2018-06-11T17:32:06.771Z,29.66
2018-06-11T17:34:37.791Z,29.22
2018-06-11T17:37:08.846Z,28.75
2018-06-11T17:39:39.527Z,28.48
2018-06-11T17:42:10.212Z,28.14
2018-06-11T17:44:41.362Z,28.15
2018-06-11T17:47:11.327Z,28.05
2018-06-11T17:49:42.099Z,27.87
2018-06-11T17:52:12.842Z,27.71
2018-06-11T17:54:43.799Z,27.66
2018-06-11T17:57:14.973Z,27.34
2018-06-11T17:59:46.603Z,27.23
2018-06-11T18:02:17.159Z,27.22
2018-06-11T18:04:47.844Z,26.78
2018-06-11T18:07:18.918Z,26.67
2018-06-11T18:09:49.697Z,26.45
2018-06-11T18:12:20.433Z,26.25
2018-06-11T18:14:51.988Z,26.02
2018-06-11T18:17:22.554Z,25.94
2018-06-11T18:19:53.803Z,25.89
2018-06-11T18:22:25.019Z,25.79
2018-06-11T18:24:56.025Z,25.94
2018-06-11T18:27:27.623Z,26.04
2018-06-11T18:29:59.324Z,26.16
2018-06-11T18:32:30.394Z,25.97
2018-06-11T18:35:01.907Z,25.46
2018-06-11T18:37:33.078Z,25.04
2018-06-11T18:40:04.420Z,25.15
2018-06-11T18:42:35.875Z,25.11
2018-06-11T18:45:06.691Z,25.17
2018-06-11T18:47:38.290Z,25.27
2018-06-11T18:50:09.947Z,25.23
2018-06-11T18:52:41.619Z,25.16
2018-06-11T18:55:13.301Z,25.04
2018-06-11T18:57:44.705Z,25.12
2018-06-11T19:00:16.616Z,24.93
2018-06-11T19:02:47.440Z,24.91
2018-06-11T19:05:17.876Z,25.00
2018-06-11T19:07:49.256Z,24.92
2018-06-11T19:10:20.563Z,24.98
2018-06-11T19:12:51.435Z,24.67
2018-06-11T19:15:22.150Z,24.64
2018-06-11T19:17:53.665Z,24.66
2018-06-11T19:20:25.166Z,24.61
2018-06-11T19:22:56.629Z,24.51
2018-06-11T19:25:28.509Z,24.45
2018-06-11T19:28:00.280Z,24.46
2018-06-11T19:30:30.543Z,24.37
2018-06-11T19:33:01.229Z,24.16
2018-06-11T19:35:32.313Z,24.19
2018-06-11T19:38:03.075Z,23.89
2018-06-11T19:40:34.757Z,23.75
2018-06-11T19:43:05.623Z,23.44
2018-06-11T19:45:36.291Z,23.46
2018-06-11T19:48:07.175Z,23.46
2018-06-11T19:50:38.383Z,23.39
2018-06-11T19:53:09.530Z,23.22
2018-06-11T19:55:41.380Z,23.21
2018-06-11T19:58:12.594Z,23.11
2018-06-11T20:00:43.250Z,22.81
2018-06-11T20:03:13.927Z,22.83
2018-06-11T20:05:45.754Z,22.79
2018-06-11T20:08:16.550Z,22.88
2018-06-11T20:10:47.717Z,22.72
2018-06-11T20:13:19.515Z,22.60
2018-06-11T20:15:50.498Z,22.62
2018-06-11T20:18:20.524Z,22.72
2018-06-11T20:20:52.223Z,22.73
2018-06-11T20:23:23.574Z,22.82
2018-06-11T20:25:54.362Z,22.86
2018-06-11T20:28:25.218Z,22.85
2018-06-11T20:30:56.511Z,22.67
2018-06-11T20:33:28.040Z,22.57
2018-06-11T20:35:58.403Z,22.46
2018-06-11T20:38:29.094Z,22.39
2018-06-11T20:41:00.523Z,22.47
2018-06-11T20:43:32.105Z,22.46
2018-06-11T20:46:04.718Z,22.45
2018-06-11T20:48:36.015Z,22.31
2018-06-11T20:51:07.592Z,22.29
2018-06-11T20:53:38.970Z,22.27
2018-06-11T20:56:10.376Z,22.23
2018-06-11T20:58:40.790Z,22.31
2018-06-11T21:01:12.279Z,22.25
2018-06-11T21:03:42.537Z,22.25
2018-06-11T21:06:13.820Z,22.10
2018-06-11T21:08:45.616Z,22.31
2018-06-11T21:11:17.207Z,22.22
2018-06-11T21:13:48.187Z,22.28
2018-06-11T21:16:19.750Z,22.23
2018-06-11T21:18:51.357Z,22.28
2018-06-11T21:21:22.323Z,22.21
2018-06-11T21:23:53.070Z,22.36
2018-06-11T21:26:23.739Z,22.26
2018-06-11T21:28:55.637Z,22.19
2018-06-11T21:31:27.139Z,22.19
2018-06-11T21:33:58.083Z,22.34
2018-06-11T21:36:29.454Z,22.32
2018-06-11T21:39:00.998Z,22.25
2018-06-11T21:41:32.599Z,22.35
2018-06-11T21:44:04.263Z,22.40
2018-06-11T21:46:35.708Z,22.40
2018-06-11T21:49:06.655Z,22.35
2018-06-11T21:51:37.834Z,22.26
2018-06-11T21:54:08.969Z,22.27
2018-06-11T21:56:40.582Z,22.25
2018-06-11T21:59:11.866Z,22.18
2018-06-11T22:01:43.420Z,22.22
2018-06-11T22:04:14.959Z,22.10
2018-06-11T22:06:46.606Z,21.98
2018-06-11T22:09:18.007Z,21.94
2018-06-11T22:11:49.497Z,21.94
2018-06-11T22:14:20.763Z,21.88
2018-06-11T22:16:52.665Z,21.62
2018-06-11T22:19:23.563Z,21.47
2018-06-11T22:21:54.923Z,21.43
2018-06-11T22:24:26.740Z,21.32
2018-06-11T22:26:58.280Z,21.23
2018-06-11T22:29:29.962Z,21.16
2018-06-11T22:32:01.571Z,20.99
2018-06-11T22:34:32.795Z,20.99
2018-06-11T22:37:03.237Z,21.05
2018-06-11T22:39:34.742Z,20.91
2018-06-11T22:42:05.794Z,20.71
2018-06-11T22:44:36.582Z,20.60
2018-06-11T22:47:08.048Z,20.64
2018-06-11T22:49:39.455Z,20.62
2018-06-11T22:52:10.637Z,20.53
2018-06-11T22:54:42.191Z,20.44
2018-06-11T22:57:12.843Z,20.37
2018-06-11T22:59:44.522Z,20.28
2018-06-11T23:02:15.834Z,20.02
2018-06-11T23:04:46.572Z,19.97
2018-06-11T23:07:17.065Z,20.08
2018-06-11T23:09:47.238Z,19.99
2018-06-11T23:12:17.884Z,20.03
2018-06-11T23:14:48.429Z,20.11
2018-06-11T23:17:19.199Z,20.12
2018-06-11T23:19:50.218Z,20.08
2018-06-11T23:22:21.032Z,19.98
2018-06-11T23:24:51.978Z,19.89
2018-06-11T23:27:22.117Z,19.46
2018-06-11T23:29:53.069Z,19.60
2018-06-11T23:32:24.485Z,19.62
2018-06-11T23:34:55.358Z,19.65
2018-06-11T23:37:26.165Z,19.63
2018-06-11T23:39:57.535Z,19.60
2018-06-11T23:42:28.334Z,19.61
2018-06-11T23:44:59.228Z,19.50
2018-06-11T23:47:30.110Z,19.44
2018-06-11T23:50:01.299Z,19.41
2018-06-11T23:52:32.293Z,19.47
2018-06-11T23:55:03.044Z,19.19
2018-06-11T23:57:34.369Z,19.26
